Paganini — V2CL8 — position and weather

sailwx.info

Track history (hours):
 
Tides and Currents Weather Stations Pressure Air Temp Water Temp Dewpoint Dewpoint Depression Visibility Wind Speed Wind Dir Waves Ship Positions

Paganini

Last reported at 2017-Apr-28 17:58 UTC. Time now 2017-Apr-28 18:04 UTC.
Position N 45°38' E 013°17'.

Length 90 m; draft 4 m.

Type: Cargo ship. MMSI: 305040000.

Date/timePositionNaut miles runAvg speedWind from/ knotsBaromVisibWave heightAir tempDewpointWater temp
2017-Apr-28 17:58N 45°38' E 013°17'0 0.0
2017-Apr-28 17:28N 45°38' E 013°17'0 0.0
2017-Apr-28 16:58N 45°38' E 013°17'0 0.1
2017-Apr-28 16:28N 45°38' E 013°17'0 0.0
2017-Apr-28 15:58N 45°38' E 013°18'0 0.2
2017-Apr-28 15:30N 45°38' E 013°17'1 2.9
2017-Apr-28 15:00N 45°37' E 013°16'7 7.3
2017-Apr-28 14:00N 45°30' E 013°13'5 9.2
2017-Apr-28 13:30N 45°26' E 013°12'5 9.4
2017-Apr-28 13:00N 45°21' E 013°12'5 9.2
2017-Apr-28 12:30N 45°17' E 013°13'5 9.1
2017-Apr-28 12:00N 45°12' E 013°15'5 9.2
2017-Apr-28 11:30N 45°08' E 013°16'5 9.1
2017-Apr-28 11:01N 45°03' E 013°18'4 8.8
2017-Apr-28 10:30N 44°59' E 013°20'4 8.5
2017-Apr-28 10:00N 44°55' E 013°23'4 8.5
2017-Apr-28 09:30N 44°52' E 013°26'4 8.4
2017-Apr-28 09:00N 44°48' E 013°29'4 8.8
2017-Apr-28 08:30N 44°44' E 013°32'5 9.2
2017-Apr-28 08:00N 44°41' E 013°36'5 9.2
2017-Apr-28 07:30N 44°37' E 013°40'5 9.2
2017-Apr-28 07:00N 44°33' E 013°43'4 8.5
2017-Apr-28 06:30N 44°30' E 013°47'5 9.2
2017-Apr-28 06:00N 44°26' E 013°50'510.0
2017-Apr-28 05:30N 44°22' E 013°54'5 9.9
2017-Apr-28 05:00N 44°18' E 013°58'5 9.7
2017-Apr-28 04:30N 44°13' E 014°02'5 9.6
2017-Apr-28 04:00N 44°09' E 014°05'5 9.7
2017-Apr-28 03:31N 44°05' E 014°09'5 9.5
2017-Apr-28 03:01N 44°01' E 014°12'5 9.3
2017-Apr-28 02:31N 43°57' E 014°16'  
2017-Apr-25 20:53N 42°10' E 014°43'0 0.0
2017-Apr-24 18:50N 42°10' E 014°43'0 0.0
2017-Apr-24 18:20N 42°10' E 014°43'0 0.0
2017-Apr-24 15:38N 42°10' E 014°43'  
2017-Apr-22 09:08N 37°52' E 015°59'310.0
2017-Apr-22 08:48N 37°53' E 015°55'3 9.9
2017-Apr-22 08:30N 37°53' E 015°51'5 9.6
2017-Apr-22 08:00N 37°53' E 015°45'5 9.3
2017-Apr-22 07:30N 37°55' E 015°40'510.1
2017-Apr-22 07:00N 37°59' E 015°36'5 9.4
2017-Apr-22 06:30N 38°04' E 015°35'510.0
2017-Apr-22 06:00N 38°09' E 015°35'611.1
2017-Apr-22 05:31N 38°14' E 015°36'5 9.0
2017-Apr-22 05:00N 38°18' E 015°39'611.2
2017-Apr-22 04:31N 38°21' E 015°33'510.2
2017-Apr-22 04:01N 38°21' E 015°26'5 9.2
2017-Apr-22 03:31N 38°20' E 015°20'5 9.5
2017-Apr-22 03:01N 38°20' E 015°14'5 9.2
2017-Apr-22 02:31N 38°19' E 015°09'5 9.1
2017-Apr-22 02:00N 38°18' E 015°03'4 9.0
2017-Apr-22 01:31N 38°18' E 014°57'5 9.2
2017-Apr-22 01:01N 38°19' E 014°51'5 9.1
2017-Apr-22 00:30N 38°19' E 014°45'7 9.2
2017-Apr-21 23:46N 38°20' E 014°37'30 8.9
2017-Apr-21 20:23N 38°23' E 013°59'3 8.5
2017-Apr-21 20:00N 38°23' E 013°54'4 8.6
2017-Apr-21 19:30N 38°23' E 013°49'4 8.6
2017-Apr-21 19:00N 38°24' E 013°44'4 8.8
2017-Apr-21 18:31N 38°24' E 013°38'4 8.8
2017-Apr-21 18:01N 38°25' E 013°33'4 9.0
2017-Apr-21 17:31N 38°26' E 013°27'5 9.0
2017-Apr-21 17:01N 38°26' E 013°21'5 9.4
2017-Apr-21 16:31N 38°26' E 013°15'5 9.2
2017-Apr-21 16:00N 38°27' E 013°09'5 9.2
2017-Apr-21 15:31N 38°27' E 013°03'5 9.0
2017-Apr-21 15:01N 38°28' E 012°58'5 9.0
2017-Apr-21 14:29N 38°28' E 012°52'186 9.9
2017-Apr-20 19:44N 38°46' E 008°55'3 9.9
2017-Apr-20 19:28N 38°46' E 008°52'5 9.4
2017-Apr-20 19:00N 38°47' E 008°46'232 8.9
2017-Apr-19 16:52N 38°58' E 003°48'4 7.9
2017-Apr-19 16:25N 38°58' E 003°44'3 7.9
2017-Apr-19 16:00N 38°58' E 003°40'4 7.8
2017-Apr-19 15:31N 38°59' E 003°35'4 7.7
2017-Apr-19 15:00N 38°59' E 003°30'4 7.8
2017-Apr-19 14:30N 38°59' E 003°25'7 7.4
2017-Apr-19 13:31N 38°59' E 003°15'4 7.2
2017-Apr-19 13:00N 39°00' E 003°11'3 6.8
2017-Apr-19 12:30N 39°01' E 003°06'3 6.8
2017-Apr-19 12:00N 39°01' E 003°02'3 6.7
2017-Apr-19 11:30N 39°02' E 002°58'3 6.7
2017-Apr-19 11:00N 39°03' E 002°54'3 6.9
2017-Apr-19 10:30N 39°03' E 002°49'4 7.6
2017-Apr-19 10:00N 39°04' E 002°44'4 8.0
2017-Apr-19 09:30N 39°05' E 002°39'4 8.2
2017-Apr-19 09:00N 39°06' E 002°34'4 8.1
2017-Apr-19 08:30N 39°07' E 002°29'4 8.3
2017-Apr-19 08:01N 39°08' E 002°24'4 8.2
2017-Apr-19 07:30N 39°09' E 002°19'4 7.9
2017-Apr-19 07:00N 39°10' E 002°14'4 7.8
2017-Apr-19 06:30N 39°11' E 002°09'4 7.4
2017-Apr-19 06:00N 39°12' E 002°05'4 7.1
2017-Apr-19 05:30N 39°13' E 002°00'3 7.0
2017-Apr-19 05:00N 39°14' E 001°56'3 6.9
2017-Apr-19 04:30N 39°15' E 001°52'4 7.0
2017-Apr-19 04:00N 39°16' E 001°47'4 7.2
2017-Apr-19 03:30N 39°17' E 001°43'4 7.4
2017-Apr-19 02:59N 39°18' E 001°38'4 7.5
2017-Apr-19 02:30N 39°19' E 001°34'4 7.5
2017-Apr-19 02:00N 39°20' E 001°29'4 7.8
2017-Apr-19 01:30N 39°20' E 001°24'  
Track history (hours):
 
Tides and Currents Weather Stations Pressure Air Temp Water Temp Dewpoint Dewpoint Depression Visibility Wind Speed Wind Dir Waves Ship Positions

Paganini

Last reported at 2017-Apr-28 17:58 UTC. Time now 2017-Apr-28 18:04 UTC.
Position N 45°38' E 013°17'.

Length 90 m; draft 4 m.

Type: Cargo ship. MMSI: 305040000.

Date/timePositionNaut miles runAvg speedWind from/ knotsBaromVisibWave heightAir tempDewpointWater temp
2017-Apr-28 17:58N 45°38' E 013°17'0 0.0
2017-Apr-28 17:28N 45°38' E 013°17'0 0.0
2017-Apr-28 16:58N 45°38' E 013°17'0 0.1
2017-Apr-28 16:28N 45°38' E 013°17'0 0.0
2017-Apr-28 15:58N 45°38' E 013°18'0 0.2
2017-Apr-28 15:30N 45°38' E 013°17'1 2.9
2017-Apr-28 15:00N 45°37' E 013°16'7 7.3
2017-Apr-28 14:00N 45°30' E 013°13'5 9.2
2017-Apr-28 13:30N 45°26' E 013°12'5 9.4
2017-Apr-28 13:00N 45°21' E 013°12'5 9.2
2017-Apr-28 12:30N 45°17' E 013°13'5 9.1
2017-Apr-28 12:00N 45°12' E 013°15'5 9.2
2017-Apr-28 11:30N 45°08' E 013°16'5 9.1
2017-Apr-28 11:01N 45°03' E 013°18'4 8.8
2017-Apr-28 10:30N 44°59' E 013°20'4 8.5
2017-Apr-28 10:00N 44°55' E 013°23'4 8.5
2017-Apr-28 09:30N 44°52' E 013°26'4 8.4
2017-Apr-28 09:00N 44°48' E 013°29'4 8.8
2017-Apr-28 08:30N 44°44' E 013°32'5 9.2
2017-Apr-28 08:00N 44°41' E 013°36'5 9.2
2017-Apr-28 07:30N 44°37' E 013°40'5 9.2
2017-Apr-28 07:00N 44°33' E 013°43'4 8.5
2017-Apr-28 06:30N 44°30' E 013°47'5 9.2
2017-Apr-28 06:00N 44°26' E 013°50'510.0
2017-Apr-28 05:30N 44°22' E 013°54'5 9.9
2017-Apr-28 05:00N 44°18' E 013°58'5 9.7
2017-Apr-28 04:30N 44°13' E 014°02'5 9.6
2017-Apr-28 04:00N 44°09' E 014°05'5 9.7
2017-Apr-28 03:31N 44°05' E 014°09'5 9.5
2017-Apr-28 03:01N 44°01' E 014°12'5 9.3
2017-Apr-28 02:31N 43°57' E 014°16'  
2017-Apr-25 20:53N 42°10' E 014°43'0 0.0
2017-Apr-24 18:50N 42°10' E 014°43'0 0.0
2017-Apr-24 18:20N 42°10' E 014°43'0 0.0
2017-Apr-24 15:38N 42°10' E 014°43'  
2017-Apr-22 09:08N 37°52' E 015°59'310.0
2017-Apr-22 08:48N 37°53' E 015°55'3 9.9
2017-Apr-22 08:30N 37°53' E 015°51'5 9.6
2017-Apr-22 08:00N 37°53' E 015°45'5 9.3
2017-Apr-22 07:30N 37°55' E 015°40'510.1
2017-Apr-22 07:00N 37°59' E 015°36'5 9.4
2017-Apr-22 06:30N 38°04' E 015°35'510.0
2017-Apr-22 06:00N 38°09' E 015°35'611.1
2017-Apr-22 05:31N 38°14' E 015°36'5 9.0
2017-Apr-22 05:00N 38°18' E 015°39'611.2
2017-Apr-22 04:31N 38°21' E 015°33'510.2
2017-Apr-22 04:01N 38°21' E 015°26'5 9.2
2017-Apr-22 03:31N 38°20' E 015°20'5 9.5
2017-Apr-22 03:01N 38°20' E 015°14'5 9.2
2017-Apr-22 02:31N 38°19' E 015°09'5 9.1
2017-Apr-22 02:00N 38°18' E 015°03'4 9.0
2017-Apr-22 01:31N 38°18' E 014°57'5 9.2
2017-Apr-22 01:01N 38°19' E 014°51'5 9.1
2017-Apr-22 00:30N 38°19' E 014°45'7 9.2
2017-Apr-21 23:46N 38°20' E 014°37'30 8.9
2017-Apr-21 20:23N 38°23' E 013°59'3 8.5
2017-Apr-21 20:00N 38°23' E 013°54'4 8.6
2017-Apr-21 19:30N 38°23' E 013°49'4 8.6
2017-Apr-21 19:00N 38°24' E 013°44'4 8.8
2017-Apr-21 18:31N 38°24' E 013°38'4 8.8
2017-Apr-21 18:01N 38°25' E 013°33'4 9.0
2017-Apr-21 17:31N 38°26' E 013°27'5 9.0
2017-Apr-21 17:01N 38°26' E 013°21'5 9.4
2017-Apr-21 16:31N 38°26' E 013°15'5 9.2
2017-Apr-21 16:00N 38°27' E 013°09'5 9.2
2017-Apr-21 15:31N 38°27' E 013°03'5 9.0
2017-Apr-21 15:01N 38°28' E 012°58'5 9.0
2017-Apr-21 14:29N 38°28' E 012°52'186 9.9
2017-Apr-20 19:44N 38°46' E 008°55'3 9.9
2017-Apr-20 19:28N 38°46' E 008°52'5 9.4
2017-Apr-20 19:00N 38°47' E 008°46'232 8.9
2017-Apr-19 16:52N 38°58' E 003°48'4 7.9
2017-Apr-19 16:25N 38°58' E 003°44'3 7.9
2017-Apr-19 16:00N 38°58' E 003°40'4 7.8
2017-Apr-19 15:31N 38°59' E 003°35'4 7.7
2017-Apr-19 15:00N 38°59' E 003°30'4 7.8
2017-Apr-19 14:30N 38°59' E 003°25'7 7.4
2017-Apr-19 13:31N 38°59' E 003°15'4 7.2
2017-Apr-19 13:00N 39°00' E 003°11'3 6.8
2017-Apr-19 12:30N 39°01' E 003°06'3 6.8
2017-Apr-19 12:00N 39°01' E 003°02'3 6.7
2017-Apr-19 11:30N 39°02' E 002°58'3 6.7
2017-Apr-19 11:00N 39°03' E 002°54'3 6.9
2017-Apr-19 10:30N 39°03' E 002°49'4 7.6
2017-Apr-19 10:00N 39°04' E 002°44'4 8.0
2017-Apr-19 09:30N 39°05' E 002°39'4 8.2
2017-Apr-19 09:00N 39°06' E 002°34'4 8.1
2017-Apr-19 08:30N 39°07' E 002°29'4 8.3
2017-Apr-19 08:01N 39°08' E 002°24'4 8.2
2017-Apr-19 07:30N 39°09' E 002°19'4 7.9
2017-Apr-19 07:00N 39°10' E 002°14'4 7.8
2017-Apr-19 06:30N 39°11' E 002°09'4 7.4
2017-Apr-19 06:00N 39°12' E 002°05'4 7.1
2017-Apr-19 05:30N 39°13' E 002°00'3 7.0
2017-Apr-19 05:00N 39°14' E 001°56'3 6.9
2017-Apr-19 04:30N 39°15' E 001°52'4 7.0
2017-Apr-19 04:00N 39°16' E 001°47'4 7.2
2017-Apr-19 03:30N 39°17' E 001°43'4 7.4
2017-Apr-19 02:59N 39°18' E 001°38'4 7.5
2017-Apr-19 02:30N 39°19' E 001°34'4 7.5
2017-Apr-19 02:00N 39°20' E 001°29'4 7.8
2017-Apr-19 01:30N 39°20' E 001°24'  

Dump ship's entire track history